• Join FlightAware (Why Join?)
  • Login
  • US Flag 
07:03PM EDT


 

Airport Tracker/Info


-or-


 

Live Flight TrackerFlight Track Log ✈ CPT8773 ✈ 24-Apr-2013 ✈ KCPR - KCOD

Flight Track Log - Related Links

Times and Time Zones

All times are in EDT time to prevent confusion due to time zone crossing. See the CPT8773 flight status page for this flight to view local times or setup timezone preferences in your user account.

Time Position Orientation Groundspeed Altitude Reporting Facility
EDT Latitude Longitude Course Direction KTS MPH feet Rate Location/Type
09:35AM 42.9264 -106.4936 308° West 101 116 7,000  Level Denver Center
09:36AM 42.9536 -106.4942 359° North 104 120 7,600 600 Climbing Denver Center
09:37AM 42.9881 -106.4942 360° North 107 123 8,300 540 Climbing Denver Center
09:38AM 43.0203 -106.4936 North 112 129 8,800 540 Climbing Denver Center
09:39AM 43.0759 -106.2741 36° Northeast  Level FlightAware Approximate
09:39AM 43.0519 -106.4914 North 115 132 9,400  Level Denver Center
09:40AM 43.1001 -106.2959 308° West  Level FlightAware Approximate
09:40AM 43.0875 -106.4900 North 116 133 10,000  Level Denver Center
09:41AM 43.1131 -106.4881 North 116 133 10,500 480 Climbing Denver Center
09:42AM 43.1483 -106.4872 North 114 131 11,100 480 Climbing Denver Center
09:43AM 43.1842 -106.4856 North 115 132 11,600 420 Climbing Denver Center
09:44AM 43.2114 -106.5039 334° Northwest 116 133 12,000 180 Climbing Denver Center
09:45AM 43.2314 -106.5414 306° West 125 144 12,000  Level Denver Center
09:46AM 43.2569 -106.5875 307° West 135 155 12,000  Level Denver Center
09:47AM 43.2764 -106.6272 304° West 132 152 12,000  Level Denver Center
09:48AM 43.3003 -106.6717 306° West 131 151 12,000  Level Denver Center
09:49AM 43.3222 -106.7114 307° West 136 157 12,000  Level Denver Center
09:50AM 43.3439 -106.7517 306° West 137 158 12,000  Level Denver Center
09:51AM 43.3683 -106.8022 304° West 141 162 12,000  Level Denver Center
09:52AM 43.3878 -106.8431 303° West 136 157 12,000  Level Denver Center
09:53AM 43.4083 -106.8864 303° West 134 154 12,000  Level Denver Center
09:54AM 43.4294 -106.9239 308° West 131 151 12,000  Level Denver Center
09:55AM 43.4525 -106.9664 307° West 125 144 12,000  Level Denver Center
09:56AM 43.4719 -107.0064 304° West 129 148 12,000  Level Denver Center
09:57AM 43.4975 -107.0508 308° West 132 152 12,000  Level Denver Center
09:58AM 43.5156 -107.0892 303° West 126 145 12,000  Level Denver Center
09:59AM 43.5317 -107.1222 304° West 113 130 12,000  Level Denver Center
10:00AM 43.5533 -107.1619 307° West 116 133 12,000  Level Denver Center
10:01AM 43.5739 -107.1964 309° West 120 138 12,000  Level Denver Center
10:02AM 43.5897 -107.2300 303° West 112 129 12,000  Level Denver Center
10:03AM 43.6133 -107.2714 308° West 117 135 12,000  Level Denver Center
10:04AM 43.6339 -107.3083 308° West 122 140 12,000  Level Denver Center
10:05AM 43.6586 -107.3539 307° West 128 147 12,000  Level Denver Center
10:06AM 43.6789 -107.3917 307° West 129 148 12,000  Level Denver Center
10:07AM 43.6989 -107.4317 305° West 129 148 12,000  Level Denver Center
10:08AM 43.7225 -107.4764 306° West 129 148 12,000  Level Denver Center
10:09AM 43.7417 -107.5150 305° West 128 147 12,000  Level Denver Center
10:10AM 43.7658 -107.5589 307° West 128 147 12,000  Level Denver Center
10:11AM 43.7853 -107.5969 305° West 127 146 12,000  Level Denver Center
10:12AM 43.8017 -107.6275 307° West 126 145 12,000  Level Denver Center
10:14AM 43.8281 -107.6792 305° West 127 146 12,000  Level Denver Center